Time;durP1;ratioP1;P1;durP2;ratioP2;P2;SDS_P1;SDS_P2;PMS_P1;PMS_P2;Temp;Humidity;BMP_temperature;BMP_pressure;BME280_temperature;BME280_humidity;BME280_pressure;Samples;Min_cycle;Max_cycle;Signal;HPM_P1;HPM_P2
2022/06/04 00:00:17;;;;;;;13.93;12.63;;;18.00;99.90;;;;;;5009049;28;20454;-62
2022/06/04 00:02:45;;;;;;;13.10;12.10;;;17.80;99.90;;;;;;5009180;28;20202;-62
2022/06/04 00:05:13;;;;;;;14.65;13.45;;;17.80;99.90;;;;;;5010267;28;20545;-62
2022/06/04 00:07:41;;;;;;;14.27;13.15;;;17.70;99.90;;;;;;5009381;28;20736;-62
2022/06/04 00:15:50;;;;;;;14.90;13.80;;;17.60;99.90;;;;;;5009495;28;20283;-62
2022/06/04 00:18:16;;;;;;;14.05;12.95;;;17.60;99.90;;;;;;5008691;28;20194;-62
2022/06/04 00:20:43;;;;;;;14.10;13.00;;;17.60;99.90;;;;;;5009012;28;20637;-62
2022/06/04 00:23:11;;;;;;;13.80;12.70;;;17.60;99.90;;;;;;5004199;28;20186;-62
2022/06/04 00:25:38;;;;;;;14.32;13.00;;;17.70;99.90;;;;;;5012624;28;20268;-62
2022/06/04 00:28:07;;;;;;;14.35;13.15;;;17.80;99.90;;;;;;5028459;28;20183;-62
2022/06/04 00:30:33;;;;;;;15.13;13.93;;;17.60;99.90;;;;;;5012722;28;20702;-62
2022/06/04 00:32:59;;;;;;;15.27;14.07;;;17.60;99.90;;;;;;5013233;28;20187;-62
2022/06/04 00:35:26;;;;;;;14.20;13.13;;;17.60;99.90;;;;;;5011841;28;20203;-62
2022/06/04 00:37:53;;;;;;;14.40;13.20;;;17.60;99.90;;;;;;5013557;28;20459;-62
2022/06/04 00:40:36;;;;;;;15.02;13.90;;;17.60;99.90;;;;;;5013361;28;20178;-62
2022/06/04 00:43:01;;;;;;;14.00;13.00;;;17.70;99.90;;;;;;5010895;28;20191;-62
2022/06/04 00:45:36;;;;;;;14.57;13.23;;;17.60;99.90;;;;;;5013408;28;20643;-62
2022/06/04 00:48:08;;;;;;;14.50;13.40;;;17.30;99.90;;;;;;5010351;28;20268;-62
2022/06/04 00:50:38;;;;;;;15.18;13.98;;;17.50;99.90;;;;;;5013794;28;20193;-62
2022/06/04 00:53:09;;;;;;;15.48;14.07;;;17.10;99.90;;;;;;5006161;28;20186;-62
2022/06/04 00:55:55;;;;;;;15.13;13.93;;;17.40;99.90;;;;;;5012552;28;20292;-62
2022/06/04 00:58:57;;;;;;;16.58;15.25;;;17.50;99.90;;;;;;5010259;28;20277;-62
2022/06/04 01:01:32;;;;;;;14.95;13.75;;;17.40;99.90;;;;;;5006586;28;20656;-62
2022/06/04 01:05:09;;;;;;;14.43;13.23;;;17.40;99.90;;;;;;5012917;28;20194;-62
2022/06/04 01:07:34;;;;;;;15.80;14.27;;;17.40;99.90;;;;;;5014948;28;20192;-62
2022/06/04 01:10:20;;;;;;;16.10;14.80;;;17.50;99.90;;;;;;5027139;28;20203;-62
2022/06/04 01:12:58;;;;;;;17.73;16.33;;;17.40;99.90;;;;;;5012410;28;20682;-62
2022/06/04 01:15:35;;;;;;;16.42;15.00;;;17.40;99.90;;;;;;5012262;28;20214;-62
2022/06/04 01:18:29;;;;;;;16.30;15.00;;;17.40;99.90;;;;;;5011372;28;20540;-62
2022/06/04 01:21:16;;;;;;;16.85;15.15;;;17.60;99.90;;;;;;5011579;28;20212;-62
2022/06/04 01:23:42;;;;;;;17.02;15.68;;;17.40;99.90;;;;;;5008660;28;20182;-62
2022/06/04 01:26:40;;;;;;;16.38;15.07;;;17.40;99.90;;;;;;5011801;28;20175;-62
2022/06/04 01:29:14;;;;;;;15.20;14.00;;;17.40;99.90;;;;;;5009045;28;20716;-62
2022/06/04 01:31:49;;;;;;;16.48;15.05;;;17.50;99.90;;;;;;5011859;28;20198;-62
2022/06/04 01:34:20;;;;;;;15.45;14.05;;;17.40;99.90;;;;;;5006439;28;20679;-62
2022/06/04 01:37:11;;;;;;;15.95;14.65;;;17.30;99.90;;;;;;5016850;28;20242;-62
2022/06/04 01:42:27;;;;;;;15.25;14.00;;;17.40;99.90;;;;;;5019843;28;20242;-62
2022/06/04 01:44:55;;;;;;;14.70;13.45;;;17.30;99.90;;;;;;5012527;28;20193;-62
2022/06/04 01:47:22;;;;;;;15.20;14.00;;;17.30;99.90;;;;;;5004032;28;20191;-62
2022/06/04 01:49:53;;;;;;;14.15;13.05;;;17.40;99.90;;;;;;5012056;28;20299;-62
2022/06/04 01:52:33;;;;;;;15.82;14.43;;;17.40;99.90;;;;;;5007112;28;20178;-62
2022/06/04 01:55:08;;;;;;;15.55;14.35;;;17.40;99.90;;;;;;5011426;28;20687;-62
2022/06/04 01:57:36;;;;;;;16.20;14.90;;;17.30;99.90;;;;;;5011368;28;20182;-62
2022/06/04 02:00:16;;;;;;;15.40;14.10;;;16.90;99.90;;;;;;5010385;28;20203;-62
2022/06/04 02:03:17;;;;;;;15.10;14.00;;;17.00;99.90;;;;;;5009156;28;20278;-62
2022/06/04 02:05:43;;;;;;;15.85;14.55;;;17.30;99.90;;;;;;5010118;28;20555;-62
2022/06/04 02:08:15;;;;;;;16.67;15.37;;;17.10;99.90;;;;;;5011623;28;20183;-62
2022/06/04 02:11:12;;;;;;;16.25;14.85;;;17.30;99.90;;;;;;5011389;28;20545;-62
2022/06/04 02:13:39;;;;;;;15.23;13.93;;;17.20;99.90;;;;;;5013885;28;20264;-62
2022/06/04 02:16:12;;;;;;;16.33;15.13;;;17.30;99.90;;;;;;5007404;28;20206;-62
2022/06/04 02:18:38;;;;;;;16.33;15.02;;;17.20;99.90;;;;;;5010883;28;20198;-62
2022/06/04 02:21:04;;;;;;;16.17;14.70;;;17.10;99.90;;;;;;5010834;28;20186;-62
2022/06/04 02:23:30;;;;;;;15.50;14.20;;;17.30;99.90;;;;;;5011787;28;20191;-62
2022/06/04 02:25:59;;;;;;;15.15;13.65;;;17.10;99.90;;;;;;5010561;28;21717;-62
2022/06/04 02:28:26;;;;;;;15.50;14.20;;;17.40;99.90;;;;;;5011127;28;20255;-62
2022/06/04 02:31:09;;;;;;;15.50;14.10;;;17.40;99.90;;;;;;5010695;28;20199;-62
2022/06/04 02:33:45;;;;;;;15.95;14.65;;;17.40;99.90;;;;;;5012070;28;20189;-62
2022/06/04 02:36:34;;;;;;;15.25;13.73;;;17.20;99.90;;;;;;5010898;28;20212;-62
2022/06/04 02:39:14;;;;;;;14.05;12.85;;;17.20;99.90;;;;;;5008771;28;20616;-62
2022/06/04 02:41:50;;;;;;;13.30;12.23;;;16.90;99.90;;;;;;5010136;28;20637;-62
2022/06/04 02:44:32;;;;;;;14.57;13.48;;;16.40;99.90;;;;;;5005407;28;20236;-62
2022/06/04 02:47:01;;;;;;;14.18;12.98;;;16.80;99.90;;;;;;5003950;28;20533;-62
2022/06/04 02:49:38;;;;;;;13.95;12.85;;;16.80;99.90;;;;;;5007907;28;20202;-62
2022/06/04 02:52:08;;;;;;;14.20;12.95;;;16.80;99.90;;;;;;5009468;28;20171;-62
2022/06/04 02:54:46;;;;;;;13.85;12.65;;;16.80;99.90;;;;;;5010528;28;20179;-62
2022/06/04 02:57:14;;;;;;;15.15;13.70;;;17.00;99.90;;;;;;5003960;28;20217;-62
2022/06/04 02:59:41;;;;;;;13.98;12.88;;;16.90;99.90;;;;;;5010084;28;20762;-62
2022/06/04 03:02:10;;;;;;;13.13;11.93;;;16.70;99.90;;;;;;5010025;28;20183;-62
2022/06/04 03:04:44;;;;;;;13.05;11.73;;;16.80;99.90;;;;;;5025748;28;20250;-62
2022/06/04 03:07:10;;;;;;;14.10;13.00;;;16.70;99.90;;;;;;5010930;28;20652;-62
2022/06/04 03:09:38;;;;;;;13.55;12.45;;;16.70;99.90;;;;;;5009752;28;20218;-62
2022/06/04 03:12:04;;;;;;;15.18;13.80;;;16.80;99.90;;;;;;5010974;28;20181;-63
2022/06/04 03:14:30;;;;;;;12.93;11.93;;;17.10;99.90;;;;;;5025535;28;20504;-62
2022/06/04 03:16:56;;;;;;;13.70;12.40;;;16.80;99.90;;;;;;5009544;28;20198;-62
2022/06/04 03:19:21;;;;;;;12.73;11.63;;;17.00;99.90;;;;;;5009927;28;20634;-62
2022/06/04 03:21:47;;;;;;;12.90;11.83;;;17.00;99.90;;;;;;5009721;28;20544;-62
2022/06/04 03:24:15;;;;;;;12.67;11.37;;;16.90;99.90;;;;;;5010616;28;20581;-62
2022/06/04 03:26:41;;;;;;;11.90;10.95;;;16.80;99.90;;;;;;5010083;28;20195;-62
2022/06/04 03:29:07;;;;;;;11.43;10.63;;;16.70;99.90;;;;;;5023496;28;20684;-62
2022/06/04 03:31:33;;;;;;;12.30;11.40;;;16.90;99.90;;;;;;5011568;28;20191;-62
2022/06/04 03:33:59;;;;;;;13.50;12.40;;;16.80;99.90;;;;;;5010464;28;20959;-62
2022/06/04 03:36:26;;;;;;;13.00;11.80;;;16.90;99.90;;;;;;5002377;28;20235;-62
2022/06/04 03:38:58;;;;;;;13.73;12.52;;;16.80;99.90;;;;;;5009797;28;20203;-62
2022/06/04 03:41:24;;;;;;;13.20;12.02;;;16.50;99.90;;;;;;5010755;28;20221;-62
2022/06/04 03:43:52;;;;;;;14.35;13.18;;;16.60;99.90;;;;;;5009933;28;20183;-62
2022/06/04 03:46:24;;;;;;;12.73;11.63;;;16.70;99.90;;;;;;5009457;28;20197;-62
2022/06/04 03:48:49;;;;;;;13.07;11.88;;;16.80;99.90;;;;;;5010326;28;20265;-62
2022/06/04 03:51:15;;;;;;;12.73;11.57;;;16.70;99.90;;;;;;5008819;28;20184;-62
2022/06/04 03:53:41;;;;;;;12.80;11.80;;;16.90;99.90;;;;;;5006044;28;20221;-62
2022/06/04 03:56:06;;;;;;;12.70;11.70;;;17.10;99.90;;;;;;5009225;28;20213;-62
2022/06/04 03:58:32;;;;;;;12.50;11.50;;;16.90;99.90;;;;;;5009845;28;20395;-62
2022/06/04 04:00:58;;;;;;;12.10;11.20;;;17.10;99.90;;;;;;5012787;28;20192;-62
2022/06/04 04:03:24;;;;;;;11.35;10.18;;;17.00;99.90;;;;;;5012523;28;20245;-62
2022/06/04 04:05:52;;;;;;;11.70;10.70;;;17.00;99.90;;;;;;5014072;28;20551;-62
2022/06/04 04:08:21;;;;;;;10.90;10.00;;;17.20;99.90;;;;;;5013412;28;20209;-62
2022/06/04 04:10:47;;;;;;;10.75;9.95;;;17.20;99.90;;;;;;5011409;28;20644;-62
2022/06/04 04:13:16;;;;;;;12.02;11.02;;;17.40;99.90;;;;;;5014072;28;20182;-61
2022/06/04 04:15:42;;;;;;;11.05;10.18;;;17.30;99.90;;;;;;5013354;28;20207;-62
2022/06/04 04:18:08;;;;;;;12.13;11.02;;;17.30;99.90;;;;;;5012845;28;20538;-62
2022/06/04 04:20:36;;;;;;;10.85;9.93;;;17.40;99.90;;;;;;5013565;28;20175;-61
2022/06/04 04:23:05;;;;;;;11.38;10.48;;;17.40;99.90;;;;;;5012618;28;20552;-61
2022/06/04 04:25:31;;;;;;;11.23;10.30;;;17.50;99.90;;;;;;5007680;28;20597;-61
2022/06/04 04:27:57;;;;;;;10.77;9.77;;;17.50;99.90;;;;;;5013437;28;20203;-61
2022/06/04 04:30:26;;;;;;;10.80;9.98;;;17.50;99.90;;;;;;5013716;28;20441;-61
2022/06/04 04:32:53;;;;;;;11.18;10.25;;;17.90;99.90;;;;;;5014956;28;20341;-61
2022/06/04 04:35:22;;;;;;;10.68;9.77;;;17.70;99.90;;;;;;5008465;28;20603;-61
2022/06/04 04:37:48;;;;;;;10.95;10.05;;;17.70;99.90;;;;;;5013015;28;20190;-61
2022/06/04 04:40:15;;;;;;;11.18;10.07;;;17.80;99.90;;;;;;5011847;28;20199;-61
2022/06/04 04:42:42;;;;;;;11.23;10.32;;;17.90;99.90;;;;;;5013167;28;20684;-61
2022/06/04 04:45:08;;;;;;;10.48;9.60;;;18.00;99.90;;;;;;5010732;28;20202;-61
2022/06/04 04:47:35;;;;;;;11.23;10.25;;;18.00;99.90;;;;;;5015925;28;20270;-61
2022/06/04 04:50:02;;;;;;;12.02;10.93;;;18.20;99.90;;;;;;5011943;28;20221;-64
2022/06/04 04:52:27;;;;;;;10.70;9.90;;;18.20;99.90;;;;;;5012333;28;20185;-64
2022/06/04 04:54:53;;;;;;;11.63;10.53;;;18.30;99.90;;;;;;5011941;28;20214;-64
2022/06/04 04:57:19;;;;;;;10.40;9.43;;;18.40;99.90;;;;;;5012022;28;20181;-64
2022/06/04 04:59:45;;;;;;;10.15;9.25;;;18.60;99.90;;;;;;5012303;28;20286;-64
2022/06/04 05:02:11;;;;;;;9.50;8.80;;;18.90;99.90;;;;;;5011228;28;20266;-65
2022/06/04 05:04:36;;;;;;;9.80;9.10;;;19.10;99.90;;;;;;5011903;28;20236;-63
2022/06/04 05:07:02;;;;;;;10.00;9.20;;;19.20;99.90;;;;;;5012657;28;20672;-64
2022/06/04 05:09:28;;;;;;;9.50;8.80;;;19.30;99.90;;;;;;5008441;28;20199;-64
2022/06/04 05:11:53;;;;;;;10.43;9.63;;;19.40;99.90;;;;;;5011836;28;20449;-64
2022/06/04 05:14:19;;;;;;;9.70;9.00;;;19.50;99.90;;;;;;5011833;28;20187;-63
2022/06/04 05:16:45;;;;;;;9.10;8.40;;;19.50;99.90;;;;;;5011379;28;20257;-64
2022/06/04 05:19:11;;;;;;;10.07;9.20;;;19.70;99.90;;;;;;5011628;28;20849;-64
2022/06/04 05:21:44;;;;;;;9.50;8.80;;;19.80;99.90;;;;;;5006630;28;20443;-63
2022/06/04 05:24:31;;;;;;;9.80;9.10;;;20.00;99.90;;;;;;5016098;28;20645;-64
2022/06/04 05:26:57;;;;;;;9.38;8.68;;;20.20;99.90;;;;;;5010699;28;20183;-64
2022/06/04 05:29:23;;;;;;;10.02;9.13;;;20.20;99.90;;;;;;5011458;28;20310;-64
2022/06/04 05:31:50;;;;;;;11.05;10.15;;;20.20;99.90;;;;;;5011232;28;20191;-64
2022/06/04 05:34:17;;;;;;;11.35;10.20;;;20.10;99.90;;;;;;5012098;28;20230;-64
2022/06/04 05:36:44;;;;;;;9.65;8.95;;;20.10;99.90;;;;;;5010748;28;20249;-64
2022/06/04 05:39:11;;;;;;;8.20;7.55;;;20.10;99.90;;;;;;5015996;28;20233;-64
2022/06/04 05:41:37;;;;;;;8.35;7.65;;;20.20;99.90;;;;;;5011317;28;20191;-64
2022/06/04 05:44:04;;;;;;;8.68;8.07;;;20.30;99.90;;;;;;5010271;28;20533;-63
2022/06/04 05:46:30;;;;;;;8.68;7.97;;;20.40;99.90;;;;;;5010261;28;20206;-64
2022/06/04 05:48:56;;;;;;;8.60;7.90;;;20.50;99.90;;;;;;5011379;28;20234;-64
2022/06/04 05:51:25;;;;;;;8.43;7.72;;;20.50;99.90;;;;;;5009207;28;20537;-64
2022/06/04 05:53:51;;;;;;;8.80;8.13;;;20.50;99.90;;;;;;5005759;28;20277;-64
2022/06/04 05:56:20;;;;;;;10.57;9.70;;;20.40;99.90;;;;;;5016444;28;20198;-64
2022/06/04 05:58:50;;;;;;;9.27;8.48;;;20.30;99.90;;;;;;5008946;28;20202;-64
2022/06/04 06:01:19;;;;;;;8.73;7.90;;;20.10;99.90;;;;;;5010539;28;20269;-64
2022/06/04 06:03:45;;;;;;;6.72;6.22;;;20.20;99.90;;;;;;5011338;28;20207;-64
2022/06/04 06:06:13;;;;;;;6.40;5.90;;;20.10;99.90;;;;;;5011333;28;20187;-61
2022/06/04 06:08:39;;;;;;;6.43;5.82;;;20.10;99.90;;;;;;5009291;28;20207;-64
2022/06/04 06:11:11;;;;;;;7.30;5.80;;;20.10;99.90;;;;;;5007932;28;20190;-62
2022/06/04 06:13:38;;;;;;;7.65;6.38;;;20.00;99.90;;;;;;5010285;28;20198;-63
2022/06/04 06:16:09;;;;;;;7.22;6.53;;;20.00;99.90;;;;;;5005862;28;20223;-61
2022/06/04 06:18:36;;;;;;;6.97;6.38;;;20.00;99.90;;;;;;5011328;28;20291;-62
2022/06/04 06:21:09;;;;;;;8.32;7.53;;;19.90;99.90;;;;;;5010492;28;20183;-64
2022/06/04 06:23:36;;;;;;;8.52;7.68;;;20.10;99.90;;;;;;5008581;28;20737;-64
2022/06/04 06:26:12;;;;;;;8.00;7.35;;;19.50;99.90;;;;;;5010012;28;20191;-62
2022/06/04 06:28:39;;;;;;;7.82;7.22;;;19.40;99.90;;;;;;5010836;28;20210;-62
2022/06/04 06:31:06;;;;;;;8.15;7.47;;;19.30;99.90;;;;;;5010534;28;20202;-62
2022/06/04 06:33:32;;;;;;;8.68;7.97;;;19.20;99.90;;;;;;5010367;28;20183;-62
2022/06/04 06:36:00;;;;;;;8.90;7.47;;;19.20;99.90;;;;;;5006692;28;20210;-61
2022/06/04 06:38:26;;;;;;;7.90;7.18;;;19.10;99.90;;;;;;5010099;28;20469;-65
2022/06/04 06:40:54;;;;;;;8.65;7.85;;;19.50;99.90;;;;;;5009107;28;20183;-62
2022/06/04 06:43:20;;;;;;;8.32;7.63;;;19.00;99.90;;;;;;5010586;28;20210;-62
2022/06/04 06:45:45;;;;;;;8.45;7.65;;;18.40;99.90;;;;;;5009998;28;20206;-64
2022/06/04 06:48:11;;;;;;;9.27;8.37;;;19.10;99.90;;;;;;5011892;28;20178;-67
2022/06/04 06:50:37;;;;;;;9.33;8.53;;;19.20;99.90;;;;;;5009428;28;20205;-64
2022/06/04 06:53:04;;;;;;;9.57;8.77;;;19.30;99.90;;;;;;5009068;28;20266;-64
2022/06/04 06:55:29;;;;;;;9.70;8.70;;;19.40;99.90;;;;;;5008253;28;20202;-65
2022/06/04 06:57:55;;;;;;;10.50;8.53;;;19.50;99.90;;;;;;5009431;28;20587;-65
2022/06/04 07:00:21;;;;;;;9.40;8.60;;;19.70;99.90;;;;;;5010204;28;20179;-64
2022/06/04 07:02:46;;;;;;;9.53;8.63;;;19.80;99.90;;;;;;5009391;28;20281;-64
2022/06/04 07:05:13;;;;;;;9.57;8.83;;;19.80;99.90;;;;;;5010864;28;20648;-66
2022/06/04 07:07:39;;;;;;;8.82;8.02;;;19.90;99.90;;;;;;5009471;28;20186;-64
2022/06/04 07:10:06;;;;;;;9.23;8.50;;;19.90;99.90;;;;;;5009318;28;20271;-64
2022/06/04 07:12:31;;;;;;;9.00;8.20;;;19.80;99.90;;;;;;5009567;28;20190;-64
2022/06/04 07:14:58;;;;;;;9.33;8.53;;;19.90;99.90;;;;;;5009236;28;20214;-64
2022/06/04 07:17:24;;;;;;;11.45;10.38;;;20.00;99.90;;;;;;5010030;28;20583;-64
2022/06/04 07:19:50;;;;;;;11.50;10.50;;;19.90;99.90;;;;;;5010163;28;20213;-67
2022/06/04 07:22:16;;;;;;;11.90;10.70;;;20.20;99.90;;;;;;5009763;28;20262;-66
2022/06/04 07:24:42;;;;;;;11.75;10.48;;;20.50;99.90;;;;;;5009167;28;20187;-66
2022/06/04 07:27:08;;;;;;;10.27;9.40;;;20.80;99.90;;;;;;5009189;28;20196;-67
2022/06/04 07:29:35;;;;;;;9.48;8.68;;;21.20;99.90;;;;;;5009074;28;20254;-66
2022/06/04 07:32:01;;;;;;;8.80;8.00;;;21.50;99.90;;;;;;5008514;28;20207;-66
2022/06/04 07:34:27;;;;;;;7.47;6.80;;;23.20;99.90;;;;;;5009116;28;20187;-64
2022/06/04 07:36:53;;;;;;;7.50;6.90;;;24.50;99.90;;;;;;5009012;28;20473;-64
2022/06/04 07:39:19;;;;;;;8.07;7.47;;;24.90;99.90;;;;;;5009988;28;20226;-64
2022/06/04 07:41:51;;;;;;;7.90;7.23;;;25.10;99.90;;;;;;5009195;28;20434;-64
2022/06/04 07:44:17;;;;;;;7.83;7.20;;;24.90;99.90;;;;;;5011283;28;20431;-65
2022/06/04 07:46:45;;;;;;;9.50;7.50;;;25.20;99.90;;;;;;5009569;28;20484;-64
2022/06/04 07:49:11;;;;;;;9.03;8.13;;;25.20;99.90;;;;;;5014080;28;20465;-64
2022/06/04 07:51:38;;;;;;;9.13;8.13;;;25.00;99.90;;;;;;5019162;28;20853;-65
2022/06/04 07:54:05;;;;;;;8.93;8.03;;;24.90;99.90;;;;;;5008797;28;20779;-64
2022/06/04 07:56:31;;;;;;;8.60;7.60;;;24.80;99.90;;;;;;5009172;28;20899;-65
2022/06/04 07:58:56;;;;;;;9.40;8.63;;;25.00;99.90;;;;;;5008879;28;20566;-66
2022/06/04 08:01:23;;;;;;;8.57;7.87;;;25.00;99.90;;;;;;5008477;28;20229;-64
2022/06/04 08:03:50;;;;;;;9.00;8.30;;;25.00;99.90;;;;;;5009166;28;20265;-65
2022/06/04 08:06:17;;;;;;;9.73;8.83;;;24.80;99.90;;;;;;5023806;28;20438;-65
2022/06/04 08:08:45;;;;;;;8.53;7.73;;;24.60;99.90;;;;;;5009446;28;20460;-67
2022/06/04 08:13:56;;;;;;;10.90;10.10;;;24.70;99.90;;;;;;5009833;28;20583;-65
2022/06/04 08:16:22;;;;;;;10.40;9.60;;;24.50;99.90;;;;;;5005556;28;20469;-67
2022/06/04 08:18:47;;;;;;;10.37;9.47;;;23.50;99.90;;;;;;5006872;28;20515;-64
2022/06/04 08:21:14;;;;;;;9.60;8.60;;;24.00;99.90;;;;;;5008704;28;20488;-64
2022/06/04 08:23:40;;;;;;;11.67;10.63;;;24.80;99.90;;;;;;5010667;28;20186;-65
2022/06/04 08:26:08;;;;;;;10.40;9.60;;;24.60;99.90;;;;;;5006375;28;20437;-65
2022/06/04 08:28:34;;;;;;;9.83;8.93;;;25.00;99.90;;;;;;5009000;28;20626;-65
2022/06/04 08:31:02;;;;;;;10.53;9.63;;;25.90;99.90;;;;;;5005334;28;20435;-64
2022/06/04 08:33:28;;;;;;;10.57;9.47;;;26.10;99.90;;;;;;5004616;28;20438;-64
2022/06/04 08:35:55;;;;;;;10.07;9.27;;;26.70;99.90;;;;;;5006507;28;20465;-65
2022/06/04 08:38:21;;;;;;;9.30;8.60;;;27.10;98.50;;;;;;5008336;28;20450;-65
2022/06/04 08:40:53;;;;;;;10.40;9.50;;;27.80;97.70;;;;;;5021448;28;20911;-66
2022/06/04 08:43:25;;;;;;;10.00;9.20;;;29.70;94.60;;;;;;5009656;28;20465;-65
2022/06/04 08:45:51;;;;;;;8.80;8.00;;;29.60;91.80;;;;;;5012393;28;20509;-65
2022/06/04 08:48:27;;;;;;;8.97;7.90;;;32.50;86.40;;;;;;5016780;28;20540;-65
2022/06/04 08:50:54;;;;;;;8.30;7.57;;;34.40;78.60;;;;;;5012836;28;20508;-65
2022/06/04 08:53:24;;;;;;;8.67;8.07;;;35.40;71.90;;;;;;5011413;28;20429;-65
2022/06/04 08:58:53;;;;;;;7.50;6.90;;;34.80;68.00;;;;;;5011884;28;20584;-66
2022/06/04 09:01:27;;;;;;;8.20;7.60;;;34.50;69.80;;;;;;5011801;28;20467;-65
2022/06/04 09:04:18;;;;;;;8.73;8.20;;;34.10;71.80;;;;;;5013009;28;20438;-66
2022/06/04 09:06:44;;;;;;;7.80;7.10;;;33.10;72.60;;;;;;5011445;28;20861;-65
2022/06/04 09:09:24;;;;;;;7.83;7.33;;;33.30;73.90;;;;;;5012484;28;20453;-65
2022/06/04 09:11:58;;;;;;;7.50;7.00;;;33.30;73.20;;;;;;5011374;28;20183;-65
2022/06/04 09:14:42;;;;;;;10.30;9.57;;;33.90;72.60;;;;;;5010547;28;20516;-66
2022/06/04 09:17:27;;;;;;;8.90;8.10;;;35.30;69.20;;;;;;5003914;28;20477;-65
2022/06/04 09:19:56;;;;;;;8.53;7.93;;;35.40;67.20;;;;;;5013054;28;20464;-66
2022/06/04 09:22:29;;;;;;;9.10;8.30;;;36.20;62.60;;;;;;5015056;28;20421;-66
2022/06/04 09:24:55;;;;;;;8.30;7.60;;;34.00;67.00;;;;;;5010616;28;20478;-65
2022/06/04 09:27:24;;;;;;;7.30;6.80;;;35.20;65.00;;;;;;5011508;28;20425;-68
2022/06/04 09:30:20;;;;;;;8.60;7.90;;;35.60;65.10;;;;;;5011965;28;20226;-66
2022/06/04 09:33:28;;;;;;;8.20;7.60;;;35.80;62.70;;;;;;5010839;28;20848;-66
2022/06/04 09:35:55;;;;;;;8.43;7.80;;;36.40;60.30;;;;;;5004708;28;20469;-66
2022/06/04 09:38:32;;;;;;;10.63;9.67;;;35.70;62.30;;;;;;5007579;28;20828;-66
2022/06/04 09:41:04;;;;;;;9.13;8.53;;;34.90;62.60;;;;;;5010727;28;20441;-66
2022/06/04 09:43:31;;;;;;;9.83;9.13;;;33.80;66.60;;;;;;5012780;28;21027;-65
2022/06/04 09:46:01;;;;;;;8.80;8.20;;;32.20;70.90;;;;;;5010618;28;20453;-68
2022/06/04 09:48:31;;;;;;;11.20;10.10;;;31.40;73.70;;;;;;5013810;28;20457;-65
2022/06/04 09:51:03;;;;;;;10.93;9.87;;;30.40;77.10;;;;;;5011299;28;20461;-69
2022/06/04 09:53:41;;;;;;;10.00;9.27;;;29.40;81.10;;;;;;5008216;28;21013;-67
2022/06/04 09:56:11;;;;;;;10.50;9.60;;;28.80;84.90;;;;;;5009014;28;20568;-66
2022/06/04 09:58:42;;;;;;;9.63;8.73;;;28.30;87.20;;;;;;5011041;28;20484;-65
2022/06/04 10:01:20;;;;;;;11.40;10.50;;;27.90;90.10;;;;;;5003346;28;20507;-65
2022/06/04 10:04:04;;;;;;;11.50;10.57;;;27.20;91.60;;;;;;5009361;28;20479;-65
2022/06/04 10:06:29;;;;;;;11.40;10.60;;;26.60;93.60;;;;;;5010374;28;20523;-65
2022/06/04 10:12:16;;;;;;;12.07;11.17;;;25.50;97.30;;;;;;5009176;28;20525;-65
2022/06/04 10:14:57;;;;;;;13.57;12.37;;;25.20;98.50;;;;;;5010304;28;20448;-64
2022/06/04 10:17:34;;;;;;;11.23;10.37;;;25.10;98.90;;;;;;5004362;28;20462;-67
2022/06/04 10:19:59;;;;;;;8.70;7.90;;;25.10;98.20;;;;;;5010872;28;20982;-65
2022/06/04 10:22:25;;;;;;;8.90;8.30;;;25.20;97.50;;;;;;5015591;28;20446;-67
2022/06/04 10:25:03;;;;;;;11.00;10.20;;;25.10;97.60;;;;;;5010453;28;20699;-65
2022/06/04 10:27:56;;;;;;;12.10;11.20;;;25.20;98.50;;;;;;5010269;28;20262;-65
2022/06/04 10:30:27;;;;;;;11.77;10.97;;;24.90;99.10;;;;;;5005262;28;20529;-67
2022/06/04 10:33:14;;;;;;;13.00;11.90;;;24.90;99.30;;;;;;5008949;28;20986;-65
2022/06/04 10:36:10;;;;;;;13.73;12.63;;;24.70;99.90;;;;;;5010350;28;20461;-66
2022/06/04 10:39:16;;;;;;;12.93;12.03;;;24.40;99.90;;;;;;5004800;28;20511;-70
2022/06/04 10:42:38;;;;;;;11.07;10.27;;;24.70;99.90;;;;;;5008166;28;20437;-65
2022/06/04 10:45:26;;;;;;;11.63;10.73;;;25.00;99.90;;;;;;5026942;28;20452;-64
2022/06/04 10:47:55;;;;;;;9.57;8.97;;;25.00;98.90;;;;;;5009249;28;20449;-65
2022/06/04 10:53:56;;;;;;;10.60;9.80;;;25.00;98.80;;;;;;4996638;28;20868;-65
2022/06/04 10:56:50;;;;;;;12.00;11.03;;;24.60;99.30;;;;;;5008975;28;20465;-64
2022/06/04 10:59:28;;;;;;;10.53;9.80;;;24.50;99.30;;;;;;5001741;28;20543;-65
2022/06/04 11:02:11;;;;;;;11.23;10.43;;;24.30;99.60;;;;;;5010349;28;20448;-65
2022/06/04 11:04:50;;;;;;;10.83;10.07;;;24.00;99.90;;;;;;5010275;28;20558;-65
2022/06/04 11:07:24;;;;;;;11.13;10.13;;;23.60;99.90;;;;;;5005306;28;20978;-67
2022/06/04 11:09:51;;;;;;;10.50;9.57;;;23.40;99.90;;;;;;5003571;28;20444;-65
2022/06/04 11:12:26;;;;;;;11.90;11.00;;;23.50;99.90;;;;;;5010223;28;20520;-64
2022/06/04 11:15:03;;;;;;;11.97;11.03;;;23.40;99.90;;;;;;5009831;28;20800;-64
2022/06/04 11:17:50;;;;;;;14.20;13.10;;;23.20;99.90;;;;;;5009261;28;20442;-65
2022/06/04 11:20:20;;;;;;;14.27;13.10;;;23.00;99.90;;;;;;5007282;28;20480;-64
2022/06/04 11:23:07;;;;;;;13.32;12.20;;;22.90;99.90;;;;;;5009860;28;20436;-64
2022/06/04 11:25:38;;;;;;;15.37;13.97;;;23.20;99.90;;;;;;5009567;28;20215;-64
2022/06/04 11:28:12;;;;;;;14.40;13.27;;;23.20;99.90;;;;;;5009627;28;20466;-65
2022/06/04 11:31:02;;;;;;;18.10;16.47;;;23.20;99.90;;;;;;5008831;28;20433;-69
2022/06/04 11:33:54;;;;;;;16.30;14.90;;;23.20;99.90;;;;;;5006085;28;20921;-64
2022/06/04 11:36:28;;;;;;;16.57;15.27;;;22.90;99.90;;;;;;5009336;28;20788;-64
2022/06/04 11:38:59;;;;;;;17.70;16.30;;;22.90;99.90;;;;;;5008277;28;20469;-64
2022/06/04 11:41:46;;;;;;;18.03;16.43;;;22.80;99.90;;;;;;5009790;28;20514;-64
2022/06/04 11:44:30;;;;;;;17.27;15.80;;;22.80;99.90;;;;;;5008396;28;20421;-65
2022/06/04 11:47:11;;;;;;;18.83;17.20;;;23.00;99.90;;;;;;5009008;28;20495;-65
2022/06/04 11:49:45;;;;;;;24.60;22.57;;;23.10;99.90;;;;;;5009656;28;20454;-65
2022/06/04 11:52:25;;;;;;;20.20;18.50;;;23.10;99.90;;;;;;5008943;28;20484;-67
2022/06/04 11:55:20;;;;;;;17.87;16.30;;;23.10;99.90;;;;;;5009185;28;20471;-65
2022/06/04 11:57:51;;;;;;;18.00;16.60;;;23.10;99.90;;;;;;4991951;28;20441;-65
2022/06/04 12:00:23;;;;;;;18.10;16.50;;;23.10;99.90;;;;;;5024159;28;20512;-65
2022/06/04 12:03:02;;;;;;;19.90;18.27;;;23.20;99.90;;;;;;5008872;28;20478;-65
2022/06/04 12:05:49;;;;;;;18.27;16.87;;;23.20;99.90;;;;;;5004850;28;20484;-64
2022/06/04 12:08:19;;;;;;;18.80;17.30;;;23.50;99.90;;;;;;5006751;28;20449;-64
2022/06/04 12:11:14;;;;;;;20.40;18.70;;;23.70;99.90;;;;;;5003333;28;20441;-64
2022/06/04 12:13:42;;;;;;;20.27;18.70;;;23.70;99.90;;;;;;5011611;28;20437;-65
2022/06/04 12:16:21;;;;;;;16.37;15.07;;;24.00;99.90;;;;;;5022881;28;20583;-66
2022/06/04 12:19:02;;;;;;;19.17;17.37;;;24.20;99.90;;;;;;5010562;28;20449;-64
2022/06/04 12:24:36;;;;;;;19.87;18.17;;;24.10;99.90;;;;;;5011510;28;20515;-65
2022/06/04 12:27:17;;;;;;;18.97;17.57;;;24.60;99.90;;;;;;5004291;28;20459;-64
2022/06/04 12:29:51;;;;;;;20.83;19.23;;;24.90;99.90;;;;;;5010709;28;20826;-66
2022/06/04 12:32:34;;;;;;;18.87;17.27;;;25.00;99.90;;;;;;5012477;28;20441;-65
2022/06/04 12:35:08;;;;;;;19.80;18.33;;;25.00;99.90;;;;;;5013031;28;20437;-65
2022/06/04 12:37:37;;;;;;;17.40;16.10;;;25.00;99.90;;;;;;5009891;28;20440;-65
2022/06/04 12:40:24;;;;;;;18.43;16.93;;;25.10;99.90;;;;;;5006787;28;20457;-64
2022/06/04 12:43:22;;;;;;;18.27;16.77;;;25.20;99.90;;;;;;5011235;28;20440;-66
2022/06/04 12:45:52;;;;;;;17.83;16.33;;;25.20;99.90;;;;;;5018088;28;20433;-66
2022/06/04 12:48:35;;;;;;;17.73;16.37;;;25.00;99.90;;;;;;5011691;28;20454;-65
2022/06/04 12:51:18;;;;;;;16.73;15.43;;;24.90;99.90;;;;;;5012230;28;20990;-65
2022/06/04 12:54:05;;;;;;;15.17;13.97;;;25.60;99.70;;;;;;5010278;28;20563;-64
2022/06/04 12:56:35;;;;;;;16.13;14.83;;;25.40;98.80;;;;;;5011279;28;20996;-65
2022/06/04 12:59:03;;;;;;;17.50;16.20;;;25.40;99.40;;;;;;5012461;28;20462;-66
2022/06/04 13:01:29;;;;;;;15.20;14.00;;;25.50;99.90;;;;;;5011910;28;20970;-65
2022/06/04 13:04:10;;;;;;;14.67;13.57;;;25.50;99.40;;;;;;5011851;28;20446;-65
2022/06/04 13:07:10;;;;;;;16.73;15.33;;;25.50;99.30;;;;;;5010196;28;20435;-66
2022/06/04 13:09:56;;;;;;;16.10;14.90;;;25.30;99.50;;;;;;5011593;28;20458;-65
2022/06/04 13:12:27;;;;;;;17.90;16.40;;;25.30;99.60;;;;;;5006357;28;20446;-63
2022/06/04 13:15:05;;;;;;;17.90;16.60;;;25.60;99.70;;;;;;5011693;28;20797;-63
2022/06/04 13:17:47;;;;;;;12.03;11.13;;;25.40;99.20;;;;;;5010481;28;20443;-63
2022/06/04 13:20:47;;;;;;;15.53;14.33;;;25.30;98.40;;;;;;5009419;28;20533;-63
2022/06/04 13:23:21;;;;;;;14.17;13.13;;;25.20;99.00;;;;;;5005737;28;20453;-63